createdAt,value
2023-04-29T00:02:33.913Z,46.47
2023-04-29T00:05:19.725Z,46.39
2023-04-29T00:08:05.936Z,46.24
2023-04-29T00:10:51.451Z,46.32
2023-04-29T00:13:36.898Z,46.32
2023-04-29T00:16:22.171Z,46.31
2023-04-29T00:19:07.480Z,46.23
2023-04-29T00:21:54.691Z,46.20
2023-04-29T00:24:40.366Z,46.35
2023-04-29T00:27:25.549Z,46.34
2023-04-29T00:30:15.726Z,46.41
2023-04-29T00:33:01.151Z,46.06
2023-04-29T00:35:47.075Z,46.24
2023-04-29T00:38:32.751Z,46.41
2023-04-29T00:41:17.910Z,46.17
2023-04-29T00:44:03.352Z,46.34
2023-04-29T00:46:48.736Z,46.40
2023-04-29T00:49:35.842Z,46.39
2023-04-29T00:52:23.036Z,46.36
2023-04-29T00:55:09.120Z,46.50
2023-04-29T00:57:54.850Z,46.68
2023-04-29T01:00:41.772Z,46.55
2023-04-29T01:03:29.116Z,46.72
2023-04-29T01:06:21.567Z,46.74
2023-04-29T01:09:47.279Z,46.69
2023-04-29T01:12:37.110Z,46.68
2023-04-29T01:16:01.156Z,46.77
2023-04-29T01:18:54.154Z,46.72
2023-04-29T01:21:50.909Z,46.67
2023-04-29T01:24:36.545Z,46.83
2023-04-29T01:27:38.451Z,46.84
2023-04-29T01:30:47.691Z,46.79
2023-04-29T01:33:40.428Z,46.97
2023-04-29T01:37:03.118Z,47.00
2023-04-29T01:40:06.653Z,46.94
2023-04-29T01:43:09.574Z,46.95
2023-04-29T01:45:57.925Z,47.00
2023-04-29T01:48:43.565Z,47.01
2023-04-29T01:51:29.803Z,47.09
2023-04-29T01:54:15.939Z,47.10
2023-04-29T01:57:03.170Z,46.71
2023-04-29T01:59:57.363Z,47.09
2023-04-29T02:03:09.633Z,47.14
2023-04-29T02:06:01.366Z,47.23
2023-04-29T02:08:49.081Z,47.29
2023-04-29T02:11:35.790Z,47.38
2023-04-29T02:14:21.233Z,47.29
2023-04-29T02:17:06.692Z,47.55
2023-04-29T02:19:55.097Z,47.39
2023-04-29T02:22:41.062Z,47.46
2023-04-29T02:25:26.340Z,47.40
2023-04-29T02:28:12.150Z,47.38
2023-04-29T02:30:59.142Z,47.50
2023-04-29T02:33:44.327Z,47.52
2023-04-29T02:36:29.851Z,47.71
2023-04-29T02:39:15.230Z,47.50
2023-04-29T02:42:00.439Z,47.71
2023-04-29T02:44:45.763Z,47.66
2023-04-29T02:47:30.942Z,47.78
2023-04-29T02:50:16.373Z,47.87
2023-04-29T02:53:02.279Z,47.85
2023-04-29T02:55:48.487Z,47.82
2023-04-29T02:58:34.133Z,47.98
2023-04-29T03:01:19.465Z,47.89
2023-04-29T03:04:05.708Z,47.98
2023-04-29T03:06:51.578Z,47.93
2023-04-29T03:09:36.928Z,47.96
2023-04-29T03:12:22.762Z,47.78
2023-04-29T03:15:10.549Z,48.28
2023-04-29T03:17:56.345Z,47.92
2023-04-29T03:20:42.180Z,47.96
2023-04-29T03:23:28.081Z,48.04
2023-04-29T03:26:13.957Z,47.88
2023-04-29T03:28:59.563Z,48.10
2023-04-29T03:31:46.339Z,48.07
2023-04-29T03:34:32.443Z,48.02
2023-04-29T03:37:39.420Z,48.00
2023-04-29T03:40:42.965Z,48.16
2023-04-29T03:43:28.407Z,48.14
2023-04-29T03:46:13.778Z,48.18
2023-04-29T03:48:59.400Z,48.23
2023-04-29T03:51:47.669Z,48.19
2023-04-29T03:54:34.979Z,47.99
2023-04-29T03:57:20.897Z,47.97
2023-04-29T04:00:07.911Z,47.92
2023-04-29T04:03:00.340Z,47.87
2023-04-29T04:05:47.136Z,47.77
2023-04-29T04:08:34.560Z,47.89
2023-04-29T04:11:27.381Z,47.78
2023-04-29T04:14:19.056Z,47.66
2023-04-29T04:17:05.462Z,47.63
2023-04-29T04:19:51.736Z,47.63
2023-04-29T04:22:38.255Z,47.58
2023-04-29T04:25:33.994Z,47.47
2023-04-29T04:28:35.154Z,47.41
2023-04-29T04:31:25.907Z,47.48
2023-04-29T04:34:12.063Z,47.39
2023-04-29T04:36:57.584Z,47.36
2023-04-29T04:39:43.006Z,46.80
2023-04-29T04:42:31.642Z,46.61
2023-04-29T04:45:18.992Z,47.16
2023-04-29T04:48:08.810Z,47.38
2023-04-29T04:50:57.871Z,47.02
2023-04-29T04:53:44.727Z,47.08
2023-04-29T04:56:41.625Z,47.20
2023-04-29T04:59:27.579Z,47.09
2023-04-29T05:02:12.982Z,46.95
2023-04-29T05:04:59.270Z,47.15
2023-04-29T05:07:48.272Z,47.13
2023-04-29T05:10:37.614Z,47.06
2023-04-29T05:13:25.847Z,47.14
2023-04-29T05:16:12.880Z,47.14
2023-04-29T05:19:04.846Z,47.29
2023-04-29T05:21:55.518Z,47.28
2023-04-29T05:24:42.182Z,47.25
2023-04-29T05:27:27.385Z,47.50
2023-04-29T05:30:15.298Z,47.40
2023-04-29T05:33:01.835Z,47.38
2023-04-29T05:35:48.054Z,47.51
2023-04-29T05:38:33.454Z,47.48
2023-04-29T05:41:28.603Z,47.62
2023-04-29T05:44:14.685Z,47.68
2023-04-29T05:47:00.595Z,47.66
2023-04-29T05:49:46.789Z,47.70
2023-04-29T05:52:32.599Z,47.83
2023-04-29T05:55:17.987Z,47.85
2023-04-29T05:58:03.529Z,47.97
2023-04-29T06:00:49.717Z,47.95
2023-04-29T06:03:40.249Z,47.93
2023-04-29T06:06:45.938Z,48.25
2023-04-29T06:09:36.914Z,48.77
2023-04-29T06:12:22.398Z,48.69
2023-04-29T06:15:08.054Z,48.94
2023-04-29T06:17:53.629Z,48.81
2023-04-29T06:20:40.967Z,49.06
2023-04-29T06:23:26.591Z,48.78
2023-04-29T06:26:13.365Z,48.81
2023-04-29T06:28:59.122Z,48.48
2023-04-29T06:31:45.084Z,48.14
2023-04-29T06:34:31.041Z,48.96
2023-04-29T06:37:38.098Z,49.35
2023-04-29T06:40:47.624Z,49.72
2023-04-29T06:43:33.331Z,50.08
2023-04-29T06:46:30.976Z,50.04
2023-04-29T06:49:22.427Z,49.95
2023-04-29T06:52:08.129Z,50.17
2023-04-29T06:54:53.520Z,50.02
2023-04-29T06:57:39.027Z,49.82
2023-04-29T07:00:24.827Z,49.90
2023-04-29T07:03:13.729Z,50.13
2023-04-29T07:05:59.101Z,50.20
2023-04-29T07:08:45.036Z,50.21
2023-04-29T07:11:31.473Z,50.01
2023-04-29T07:14:16.706Z,49.76
2023-04-29T07:17:02.418Z,49.82
2023-04-29T07:19:48.655Z,49.64
2023-04-29T07:22:34.151Z,49.69
2023-04-29T07:25:19.793Z,49.84
2023-04-29T07:28:06.514Z,49.99
2023-04-29T07:30:52.823Z,49.09
2023-04-29T07:33:38.845Z,49.91
2023-04-29T07:36:24.076Z,49.84
2023-04-29T07:39:09.451Z,49.56
2023-04-29T07:41:55.996Z,49.61
2023-04-29T07:44:41.699Z,49.51
2023-04-29T07:47:27.255Z,49.56
2023-04-29T07:50:13.609Z,49.65
2023-04-29T07:53:00.618Z,49.60
2023-04-29T07:55:47.235Z,49.60
2023-04-29T07:58:33.097Z,49.80
2023-04-29T08:01:19.114Z,49.42
2023-04-29T08:04:05.427Z,49.53
2023-04-29T08:06:55.444Z,49.94
2023-04-29T08:09:40.655Z,49.81
2023-04-29T08:12:28.497Z,49.71
2023-04-29T08:15:13.998Z,49.92
2023-04-29T08:17:59.732Z,49.80
2023-04-29T08:20:48.301Z,49.94
2023-04-29T08:23:34.188Z,49.97
2023-04-29T08:26:22.589Z,49.86
2023-04-29T08:29:09.435Z,49.79
2023-04-29T08:31:55.703Z,49.70
2023-04-29T08:34:41.973Z,49.55
2023-04-29T08:37:27.830Z,49.47
2023-04-29T08:40:13.921Z,49.61
2023-04-29T08:43:00.298Z,49.53
2023-04-29T08:45:48.659Z,49.48
2023-04-29T08:48:37.331Z,49.68
2023-04-29T08:51:23.039Z,49.46
2023-04-29T08:54:08.558Z,49.55
2023-04-29T08:56:55.720Z,49.36
2023-04-29T08:59:41.679Z,49.52
2023-04-29T09:02:28.102Z,49.38
2023-04-29T09:05:14.033Z,49.45
2023-04-29T09:08:04.276Z,49.52
2023-04-29T09:10:53.777Z,49.36
2023-04-29T09:13:39.640Z,49.49
2023-04-29T09:16:24.901Z,49.53
2023-04-29T09:19:10.252Z,49.69
2023-04-29T09:21:58.250Z,49.80
2023-04-29T09:24:48.097Z,49.81
2023-04-29T09:27:35.107Z,49.42
2023-04-29T09:30:21.367Z,49.42
2023-04-29T09:33:09.275Z,49.71
2023-04-29T09:35:55.375Z,49.47
2023-04-29T09:38:56.150Z,49.50
2023-04-29T09:41:42.626Z,49.61
2023-04-29T09:44:36.010Z,49.41
2023-04-29T09:47:31.420Z,49.63
2023-04-29T09:50:19.588Z,49.68
2023-04-29T09:53:08.913Z,49.53
2023-04-29T09:55:54.215Z,49.62
2023-04-29T09:58:40.241Z,49.85
2023-04-29T10:01:27.619Z,49.79
2023-04-29T10:04:15.601Z,49.91
2023-04-29T10:07:02.672Z,50.19
2023-04-29T10:09:48.832Z,50.10
2023-04-29T10:12:38.864Z,50.34
2023-04-29T10:15:40.105Z,50.14
2023-04-29T10:18:49.320Z,50.20
2023-04-29T10:21:35.048Z,50.40
2023-04-29T10:24:22.575Z,50.31
2023-04-29T10:27:12.367Z,50.44
2023-04-29T10:30:00.885Z,49.64
2023-04-29T10:32:51.505Z,50.18
2023-04-29T10:35:38.019Z,50.56
2023-04-29T10:38:29.579Z,50.98
2023-04-29T10:41:20.946Z,51.53
2023-04-29T10:44:06.245Z,52.08
2023-04-29T10:47:21.592Z,52.25
2023-04-29T10:50:07.624Z,52.50
2023-04-29T10:52:53.027Z,52.96
2023-04-29T10:55:39.026Z,53.27
2023-04-29T10:58:37.810Z,53.33
2023-04-29T11:01:41.600Z,53.34
2023-04-29T11:04:27.529Z,53.05
2023-04-29T11:07:28.204Z,52.80
2023-04-29T11:10:14.005Z,53.16
2023-04-29T11:13:25.077Z,53.62
2023-04-29T11:16:11.586Z,53.27
2023-04-29T11:19:11.024Z,53.39
2023-04-29T11:22:30.164Z,52.86
2023-04-29T11:25:16.039Z,52.82
2023-04-29T11:28:02.187Z,52.58
2023-04-29T11:30:50.308Z,52.76
2023-04-29T11:33:35.954Z,53.00
2023-04-29T11:36:21.429Z,53.10
2023-04-29T11:39:08.179Z,52.80
2023-04-29T11:42:03.884Z,52.84
2023-04-29T11:44:53.433Z,53.13
2023-04-29T11:47:45.081Z,53.52
2023-04-29T11:50:32.794Z,53.38
2023-04-29T11:53:25.221Z,53.49
2023-04-29T11:56:11.696Z,53.27
2023-04-29T11:58:58.811Z,53.57
2023-04-29T12:01:44.477Z,53.70
2023-04-29T12:04:30.072Z,53.82
2023-04-29T12:07:16.959Z,53.37
2023-04-29T12:10:02.259Z,53.55
2023-04-29T12:12:48.418Z,53.86
2023-04-29T12:15:33.934Z,53.79
2023-04-29T12:18:20.040Z,54.23
2023-04-29T12:21:06.696Z,54.00
2023-04-29T12:23:52.645Z,53.38
2023-04-29T12:26:40.338Z,53.47
2023-04-29T12:29:26.669Z,53.52
2023-04-29T12:32:22.138Z,53.35
2023-04-29T12:35:16.862Z,53.38
2023-04-29T12:38:02.835Z,53.76
2023-04-29T12:40:49.591Z,53.65
2023-04-29T12:43:36.488Z,53.66
2023-04-29T12:46:23.690Z,53.42
2023-04-29T12:49:10.129Z,53.51
2023-04-29T12:51:55.440Z,53.35
2023-04-29T12:54:43.976Z,53.20
2023-04-29T12:57:30.517Z,53.34
2023-04-29T13:00:16.836Z,53.26
2023-04-29T13:03:02.494Z,53.11
2023-04-29T13:05:51.496Z,53.32
2023-04-29T13:08:37.901Z,53.14
2023-04-29T13:11:23.259Z,53.13
2023-04-29T13:14:08.990Z,53.34
2023-04-29T13:16:54.622Z,53.43
2023-04-29T13:19:51.072Z,53.82
2023-04-29T13:22:37.488Z,53.31
2023-04-29T13:25:23.154Z,53.23
2023-04-29T13:28:08.508Z,53.26
2023-04-29T13:30:54.427Z,53.80
2023-04-29T13:33:40.468Z,53.34
2023-04-29T13:36:28.346Z,53.54
2023-04-29T13:39:14.948Z,53.55
2023-04-29T13:42:00.536Z,53.52
2023-04-29T13:45:00.015Z,53.04
2023-04-29T13:48:06.783Z,53.13
2023-04-29T13:51:27.080Z,53.25
2023-04-29T13:54:48.176Z,53.37
2023-04-29T13:57:55.453Z,53.05
2023-04-29T14:00:31.639Z,53.00
2023-04-29T14:03:18.664Z,52.77
2023-04-29T14:06:04.122Z,52.70
2023-04-29T14:08:50.014Z,52.58
2023-04-29T14:11:36.910Z,52.89
2023-04-29T14:14:22.592Z,53.55
2023-04-29T14:17:07.749Z,53.01
2023-04-29T14:19:53.458Z,53.42
2023-04-29T14:22:40.141Z,53.29
2023-04-29T14:25:26.745Z,53.48
2023-04-29T14:28:13.935Z,53.71
2023-04-29T14:30:59.371Z,53.65
2023-04-29T14:33:44.716Z,53.83
2023-04-29T14:36:32.651Z,53.97
2023-04-29T14:39:18.467Z,53.93
2023-04-29T14:42:04.358Z,53.98
2023-04-29T14:44:49.644Z,54.17
2023-04-29T14:47:34.998Z,53.90
2023-04-29T14:50:20.643Z,53.81
2023-04-29T14:53:08.769Z,53.79
2023-04-29T14:55:54.347Z,53.91
2023-04-29T14:58:39.740Z,53.79
2023-04-29T15:01:26.155Z,53.81
2023-04-29T15:04:12.857Z,54.26
2023-04-29T15:07:01.018Z,53.83
2023-04-29T15:09:47.662Z,54.03
2023-04-29T15:12:34.006Z,54.11
2023-04-29T15:15:19.397Z,54.51
2023-04-29T15:18:06.328Z,53.95
2023-04-29T15:20:51.901Z,54.25
2023-04-29T15:23:37.631Z,54.41
2023-04-29T15:26:23.161Z,54.11
2023-04-29T15:29:08.698Z,52.06
2023-04-29T15:31:54.120Z,52.82
2023-04-29T15:34:39.358Z,52.83
2023-04-29T15:37:26.304Z,53.02
2023-04-29T15:40:12.471Z,53.16
2023-04-29T15:42:57.935Z,52.90
2023-04-29T15:45:43.377Z,53.06
2023-04-29T15:48:28.742Z,52.84
2023-04-29T15:51:15.168Z,52.67
2023-04-29T15:54:00.584Z,52.89
2023-04-29T15:56:45.708Z,52.86
2023-04-29T15:59:31.733Z,52.82
2023-04-29T16:02:17.344Z,53.03
2023-04-29T16:05:03.586Z,52.63
2023-04-29T16:07:49.105Z,52.37
2023-04-29T16:10:34.394Z,52.61
2023-04-29T16:13:19.921Z,52.55
2023-04-29T16:16:06.790Z,52.43
2023-04-29T16:18:52.065Z,52.18
2023-04-29T16:21:37.388Z,52.26
2023-04-29T16:24:22.920Z,52.17
2023-04-29T16:27:08.581Z,52.03
2023-04-29T16:29:55.670Z,52.14
2023-04-29T16:32:43.183Z,51.97
2023-04-29T16:35:30.963Z,52.23
2023-04-29T16:38:16.624Z,52.25
2023-04-29T16:41:02.519Z,52.19
2023-04-29T16:43:47.897Z,52.31
2023-04-29T16:46:33.413Z,52.55
2023-04-29T16:49:26.569Z,52.83
2023-04-29T16:52:12.756Z,52.67
2023-04-29T16:55:00.318Z,52.69
2023-04-29T16:57:45.776Z,51.66
2023-04-29T17:00:31.716Z,50.45
2023-04-29T17:03:17.251Z,50.33
2023-04-29T17:06:04.198Z,49.84
2023-04-29T17:08:51.534Z,50.04
2023-04-29T17:11:37.163Z,49.83
2023-04-29T17:14:23.055Z,49.91
2023-04-29T17:17:12.002Z,49.92
2023-04-29T17:19:57.696Z,49.66
2023-04-29T17:22:42.922Z,49.66
2023-04-29T17:25:28.222Z,49.65
2023-04-29T17:28:13.848Z,49.74
2023-04-29T17:31:01.244Z,49.35
2023-04-29T17:33:55.262Z,49.31
2023-04-29T17:36:41.225Z,49.24
2023-04-29T17:39:26.445Z,49.58
2023-04-29T17:42:12.200Z,50.13
2023-04-29T17:44:57.820Z,49.70
2023-04-29T17:47:44.052Z,50.13
2023-04-29T17:50:31.708Z,50.16
2023-04-29T17:53:17.964Z,50.12
2023-04-29T17:56:03.644Z,50.05
2023-04-29T17:58:49.268Z,50.09
2023-04-29T18:01:35.833Z,51.10
2023-04-29T18:04:21.531Z,50.61
2023-04-29T18:07:07.124Z,50.78
2023-04-29T18:09:53.270Z,50.53
2023-04-29T18:12:39.085Z,50.61
2023-04-29T18:15:24.513Z,51.07
2023-04-29T18:18:10.597Z,50.73
2023-04-29T18:20:59.290Z,50.74
2023-04-29T18:23:45.133Z,50.51
2023-04-29T18:26:31.216Z,50.38
2023-04-29T18:29:17.037Z,50.26
2023-04-29T18:32:02.410Z,50.45
2023-04-29T18:34:48.406Z,50.23
2023-04-29T18:37:33.913Z,50.36
2023-04-29T18:40:20.661Z,50.38
2023-04-29T18:43:06.267Z,50.35
2023-04-29T18:45:52.129Z,50.43
2023-04-29T18:48:39.019Z,50.34
2023-04-29T18:51:25.121Z,50.44
2023-04-29T18:54:11.226Z,50.19
2023-04-29T18:56:56.717Z,50.56
2023-04-29T18:59:42.637Z,50.60
2023-04-29T19:02:28.600Z,50.73
2023-04-29T19:05:14.413Z,50.54
2023-04-29T19:07:59.969Z,50.63
2023-04-29T19:10:46.595Z,50.68
2023-04-29T19:13:32.240Z,50.61
2023-04-29T19:16:18.119Z,50.76
2023-04-29T19:19:04.321Z,50.78
2023-04-29T19:21:49.879Z,51.18
2023-04-29T19:24:37.110Z,51.51
2023-04-29T19:27:23.339Z,51.51
2023-04-29T19:30:09.423Z,51.38
2023-04-29T19:32:55.686Z,51.32
2023-04-29T19:35:41.404Z,51.52
2023-04-29T19:38:26.958Z,51.53
2023-04-29T19:41:12.795Z,51.40
2023-04-29T19:43:58.099Z,51.16
2023-04-29T19:46:43.634Z,51.11
2023-04-29T19:49:29.262Z,51.20
2023-04-29T19:52:14.680Z,50.88
2023-04-29T19:55:00.099Z,50.95
2023-04-29T19:57:45.599Z,50.94
2023-04-29T20:00:31.499Z,50.36
2023-04-29T20:03:17.144Z,50.55
2023-04-29T20:06:02.525Z,50.63
2023-04-29T20:08:48.405Z,50.56
2023-04-29T20:11:33.713Z,50.43
2023-04-29T20:14:19.482Z,50.55
2023-04-29T20:17:05.014Z,50.79
2023-04-29T20:19:50.535Z,50.87
2023-04-29T20:22:36.660Z,50.73
2023-04-29T20:25:22.011Z,50.93
2023-04-29T20:28:08.992Z,50.79
2023-04-29T20:30:54.315Z,50.85
2023-04-29T20:33:39.423Z,50.80
2023-04-29T20:36:24.711Z,51.33
2023-04-29T20:39:10.872Z,51.60
2023-04-29T20:41:57.199Z,51.80
2023-04-29T20:44:43.250Z,51.71
2023-04-29T20:47:29.022Z,52.13
2023-04-29T20:50:14.392Z,51.87
2023-04-29T20:53:00.631Z,51.83
2023-04-29T20:55:46.660Z,51.65
2023-04-29T20:58:32.305Z,51.54
2023-04-29T21:01:19.504Z,51.75
2023-04-29T21:04:06.085Z,51.65
2023-04-29T21:06:52.723Z,51.75
2023-04-29T21:09:38.605Z,51.63
2023-04-29T21:12:24.873Z,51.48
2023-04-29T21:15:11.348Z,51.57
2023-04-29T21:17:56.902Z,51.66
2023-04-29T21:20:42.347Z,51.54
2023-04-29T21:23:27.856Z,51.45
2023-04-29T21:26:15.001Z,51.41
2023-04-29T21:29:01.169Z,51.49
2023-04-29T21:31:47.205Z,51.63
2023-04-29T21:34:32.792Z,51.52
2023-04-29T21:37:18.402Z,51.71
2023-04-29T21:40:04.864Z,51.31
2023-04-29T21:42:51.097Z,51.49
2023-04-29T21:45:36.575Z,51.60
2023-04-29T21:48:21.982Z,51.58
2023-04-29T21:51:08.794Z,51.63
2023-04-29T21:53:54.541Z,51.64
2023-04-29T21:56:39.756Z,51.68
2023-04-29T21:59:25.509Z,51.67
2023-04-29T22:02:23.000Z,51.58
2023-04-29T22:05:08.837Z,51.51
2023-04-29T22:07:54.881Z,51.63
2023-04-29T22:10:41.591Z,51.61
2023-04-29T22:13:26.859Z,51.65
2023-04-29T22:16:12.353Z,51.74
2023-04-29T22:18:58.039Z,51.43
2023-04-29T22:21:43.384Z,51.47
2023-04-29T22:24:28.682Z,51.61
2023-04-29T22:27:13.934Z,51.51
2023-04-29T22:29:59.436Z,51.11
2023-04-29T22:32:44.876Z,51.33
2023-04-29T22:35:30.307Z,51.26
2023-04-29T22:38:16.328Z,51.28
2023-04-29T22:41:01.841Z,51.03
2023-04-29T22:43:47.217Z,51.27
2023-04-29T22:46:33.532Z,51.34
2023-04-29T22:49:19.098Z,51.09
2023-04-29T22:52:04.749Z,51.02
2023-04-29T22:54:50.629Z,51.45
2023-04-29T22:57:36.133Z,50.93
2023-04-29T23:00:22.144Z,51.27
2023-04-29T23:03:07.386Z,51.37
2023-04-29T23:05:57.825Z,51.17
2023-04-29T23:08:44.663Z,51.13
2023-04-29T23:11:31.220Z,50.96
2023-04-29T23:14:16.907Z,51.13
2023-04-29T23:17:02.218Z,51.21
2023-04-29T23:19:47.672Z,51.34
2023-04-29T23:22:33.065Z,51.09
2023-04-29T23:25:18.374Z,51.04
2023-04-29T23:28:03.716Z,51.28
2023-04-29T23:30:49.258Z,51.31
2023-04-29T23:33:34.470Z,51.24
2023-04-29T23:36:19.610Z,51.37
2023-04-29T23:39:05.386Z,51.38
2023-04-29T23:41:51.465Z,51.22
2023-04-29T23:44:39.255Z,51.45
2023-04-29T23:47:24.834Z,51.44
2023-04-29T23:50:10.465Z,51.63
2023-04-29T23:52:56.133Z,51.46
2023-04-29T23:55:41.643Z,51.55
2023-04-29T23:58:27.963Z,51.71
